Dades meteomassalio
Diari Summary for Febrer 24, 2018 Units:  English    Metric   Both
« Previous Day
Next Day »
Diari Semanal Mensual Anual Personalitzat
  Maxima: Minima: Mijana:
Temperatura: TemperatureC °F -6.1 °F 1.2 °F
Rosada: DewpointC °F -7.6 °F -3.6 °F
Humitat: Humidity % 44 % 73 %
Velocitat del vent: WindSpeedKMH mph 0.0 mph 1.4 mph
Racha vent: WindSpeedGustKMH mph - -
Vent:- - ESE
Pressio: PressurehPa in 1010.7 in -
Pluja: 0.0 in    
Historical Graphs
 
 
Tabular Data for Febrer 24, 2018
Time Temperature Dew Point Pressure Wind Wind Speed Wind Gust Humidity Rainfall Rate (Hourly) solar Conditions
TemperatureC °F DewpointC °F PressurehPa in Calm     Humidity % HourlyPrecipMM in SolarRadiationWatts/m^2 W/m2 Conditions
00:00 -2.8 °F -5.3 °F 1011.1 in Calm     83 % 0.0 in 0.0 W/m2 CLR
00:05 -3.3 °F -5.8 °F 1011.1 in Calm     83 % 0.0 in 0.0 W/m2 CLR
00:10 -3.3 °F -5.9 °F 1011.1 in Calm     82 % 0.0 in 0.0 W/m2 CLR
00:15 -3.3 °F -5.9 °F 1011.1 in Calm     82 % 0.0 in 0.0 W/m2 CLR
00:20 -2.8 °F -5.3 °F 1011.1 in Calm     83 % 0.0 in 0.0 W/m2 CLR
00:25 -2.8 °F -5.3 °F 1011.1 in Calm     83 % 0.0 in 0.0 W/m2 CLR
00:30 -2.8 °F -5.1 °F 1011.1 in Calm     84 % 0.0 in 0.0 W/m2 CLR
00:35 -2.8 °F -5.1 °F 1011.1 in Calm     84 % 0.0 in 0.0 W/m2 CLR
00:40 -2.8 °F -5.1 °F 1011.1 in Calm     84 % 0.0 in 0.0 W/m2 CLR
00:45 -2.8 °F -5.1 °F 1010.7 in Calm     84 % 0.0 in 0.0 W/m2 CLR
00:50 -2.8 °F -4.9 °F 1011.1 in Calm     85 % 0.0 in 0.0 W/m2 CLR
00:55 -2.8 °F -4.9 °F 1011.1 in Calm     85 % 0.0 in 0.0 W/m2 CLR
01:00 -2.8 °F -4.9 °F 1011.1 in Calm     85 % 0.0 in 0.0 W/m2 CLR
01:05 -2.8 °F -4.9 °F 1011.1 in Calm     85 % 0.0 in 0.0 W/m2 CLR
01:10 -2.8 °F -5.1 °F 1011.1 in Calm     84 % 0.0 in 0.0 W/m2 CLR
01:15 -3.3 °F -5.5 °F 1011.1 in Calm     85 % 0.0 in 0.0 W/m2 CLR
01:20 -3.3 °F -5.5 °F 1011.1 in Calm     85 % 0.0 in 0.0 W/m2 CLR
01:25 -3.3 °F -5.5 °F 1011.1 in Calm     85 % 0.0 in 0.0 W/m2 CLR
01:30 -3.3 °F -5.5 °F 1011.1 in Calm     85 % 0.0 in 0.0 W/m2 CLR
01:35 -3.3 °F -5.3 °F 1011.1 in Calm     86 % 0.0 in 0.0 W/m2 CLR
01:40 -3.3 °F -5.3 °F 1011.1 in Calm     86 % 0.0 in 0.0 W/m2 CLR
01:45 -3.9 °F -5.9 °F 1011.1 in Calm     86 % 0.0 in 0.0 W/m2 CLR
01:50 -3.9 °F -5.9 °F 1011.4 in Calm     86 % 0.0 in 0.0 W/m2 CLR
01:55 -3.9 °F -5.9 °F 1011.4 in Calm     86 % 0.0 in 0.0 W/m2 CLR
02:00 -3.9 °F -5.9 °F 1011.4 in Calm     86 % 0.0 in 0.0 W/m2 CLR
02:05 -3.9 °F -5.9 °F 1011.4 in Calm     86 % 0.0 in 0.0 W/m2 CLR
02:10 -3.9 °F -5.7 °F 1011.1 in Calm     87 % 0.0 in 0.0 W/m2 CLR
02:15 -3.9 °F -5.7 °F 1011.1 in Calm     87 % 0.0 in 0.0 W/m2 CLR
02:20 -3.9 °F -5.7 °F 1011.1 in Calm     87 % 0.0 in 0.0 W/m2 CLR
02:25 -3.9 °F -5.7 °F 1011.1 in Calm     87 % 0.0 in 0.0 W/m2 CLR
02:30 -4.4 °F -6.3 °F 1011.1 in Calm     87 % 0.0 in 0.0 W/m2 CLR
02:35 -4.4 °F -6.3 °F 1011.4 in Calm     87 % 0.0 in 0.0 W/m2 CLR
02:40 -4.4 °F -6.1 °F 1011.1 in Calm     88 % 0.0 in 0.0 W/m2 CLR
02:45 -4.4 °F -6.3 °F 1011.4 in Calm     87 % 0.0 in 0.0 W/m2 CLR
02:50 -4.4 °F -6.3 °F 1011.4 in Calm     87 % 0.0 in 0.0 W/m2 CLR
02:55 -4.4 °F -6.3 °F 1011.4 in Calm     87 % 0.0 in 0.0 W/m2 CLR
03:00 -4.4 °F -6.3 °F 1011.4 in Calm     87 % 0.0 in 0.0 W/m2 CLR
03:05 -4.4 °F -6.3 °F 1011.4 in Calm     87 % 0.0 in 0.0 W/m2 CLR
03:10 -4.4 °F -6.3 °F 1011.4 in Calm     87 % 0.0 in 0.0 W/m2 CLR
03:15 -4.4 °F -6.1 °F 1011.4 in Calm     88 % 0.0 in 0.0 W/m2 CLR
03:20 -4.4 °F -6.1 °F 1011.4 in Calm     88 % 0.0 in 0.0 W/m2 CLR
03:25 -4.4 °F -6.1 °F 1011.4 in Calm     88 % 0.0 in 0.0 W/m2 CLR
03:30 -4.4 °F -6.1 °F 1011.4 in Calm     88 % 0.0 in 0.0 W/m2 CLR
03:35 -4.4 °F -6.1 °F 1011.4 in Calm     88 % 0.0 in 0.0 W/m2 CLR
03:40 -4.4 °F -6.1 °F 1011.4 in Calm     88 % 0.0 in 0.0 W/m2 CLR
03:45 -4.4 °F -6.1 °F 1011.4 in Calm     88 % 0.0 in 0.0 W/m2 CLR
03:50 -4.4 °F -6.1 °F 1011.4 in Calm     88 % 0.0 in 0.0 W/m2 CLR
03:55 -4.4 °F -6.1 °F 1011.4 in Calm     88 % 0.0 in 0.0 W/m2 CLR
04:00 -4.4 °F -6.1 °F 1011.4 in Calm     88 % 0.0 in 0.0 W/m2 CLR
04:06 -4.4 °F -6.1 °F 1011.4 in Calm     88 % 0.0 in 0.0 W/m2 CLR
04:11 -4.4 °F -6.1 °F 1011.4 in Calm     88 % 0.0 in 0.0 W/m2 CLR
04:15 -4.4 °F -6.0 °F 1011.4 in Calm     89 % 0.0 in 0.0 W/m2 CLR
04:20 -3.9 °F -5.6 °F 1011.4 in Calm     88 % 0.0 in 0.0 W/m2 CLR
04:25 -3.9 °F -5.4 °F 1011.4 in Calm     89 % 0.0 in 0.0 W/m2 CLR
04:30 -4.4 °F -6.0 °F 1011.1 in Calm     89 % 0.0 in 0.0 W/m2 CLR
04:36 -4.4 °F -6.0 °F 1011.1 in Calm     89 % 0.0 in 0.0 W/m2 CLR
04:41 -4.4 °F -6.0 °F 1011.1 in Calm     89 % 0.0 in 0.0 W/m2 CLR
04:46 -4.4 °F -6.0 °F 1011.1 in Calm     89 % 0.0 in 0.0 W/m2 CLR
04:51 -4.4 °F -6.0 °F 1011.1 in Calm     89 % 0.0 in 0.0 W/m2 CLR
04:56 -4.4 °F -6.0 °F 1011.1 in Calm     89 % 0.0 in 0.0 W/m2 CLR
05:01 -5.0 °F -6.6 °F 1011.1 in Calm     89 % 0.0 in 0.0 W/m2 CLR
05:06 -5.0 °F -6.4 °F 1011.1 in Calm     90 % 0.0 in 0.0 W/m2 CLR
05:11 -5.0 °F -6.6 °F 1011.4 in Calm     89 % 0.0 in 0.0 W/m2 CLR
05:16 -5.0 °F -6.6 °F 1011.4 in Calm     89 % 0.0 in 0.0 W/m2 CLR
05:21 -5.0 °F -6.6 °F 1011.1 in Calm     89 % 0.0 in 0.0 W/m2 CLR
05:26 -5.0 °F -6.6 °F 1011.1 in Calm     89 % 0.0 in 0.0 W/m2 CLR
05:31 -5.6 °F -7.1 °F 1011.1 in Calm     89 % 0.0 in 0.0 W/m2 CLR
05:36 -5.6 °F -7.1 °F 1011.1 in Calm     89 % 0.0 in 0.0 W/m2 CLR
05:41 -5.6 °F -7.1 °F 1011.1 in Calm     89 % 0.0 in 0.0 W/m2 CLR
05:46 -5.6 °F -7.1 °F 1011.1 in Calm     89 % 0.0 in 0.0 W/m2 CLR
05:51 -5.6 °F -6.9 °F 1011.1 in Calm     90 % 0.0 in 0.0 W/m2 CLR
05:56 -5.6 °F -6.9 °F 1011.1 in Calm     90 % 0.0 in 0.0 W/m2 CLR
06:01 -5.6 °F -7.1 °F 1011.4 in Calm     89 % 0.0 in 0.0 W/m2 CLR
06:06 -5.6 °F -7.1 °F 1011.1 in Calm     89 % 0.0 in 0.0 W/m2 CLR
06:11 -5.6 °F -6.9 °F 1011.1 in Calm     90 % 0.0 in 0.0 W/m2 CLR
06:16 -5.6 °F -6.9 °F 1011.1 in Calm     90 % 0.0 in 0.0 W/m2 CLR
06:21 -5.6 °F -6.9 °F 1011.1 in Calm     90 % 0.0 in 0.0 W/m2 CLR
06:26 -5.6 °F -6.9 °F 1011.4 in Calm     90 % 0.0 in 0.0 W/m2 CLR
06:31 -5.6 °F -7.1 °F 1011.4 in Calm     89 % 0.0 in 0.0 W/m2 CLR
06:36 -6.1 °F -7.5 °F 1011.4 in Calm     90 % 0.0 in 0.0 W/m2 CLR
06:41 -6.1 °F -7.6 °F 1011.4 in Calm     89 % 0.0 in 0.0 W/m2 CLR
06:46 -5.6 °F -6.9 °F 1011.4 in Calm     90 % 0.0 in 0.0 W/m2 CLR
06:51 -5.6 °F -7.1 °F 1011.4 in Calm     89 % 0.0 in 0.0 W/m2 CLR
06:56 -5.6 °F -6.9 °F 1011.4 in Calm     90 % 0.0 in 0.0 W/m2 CLR
07:01 -5.6 °F -6.9 °F 1011.4 in Calm     90 % 0.0 in 0.0 W/m2 CLR
07:06 -6.1 °F -7.5 °F 1011.4 in Calm     90 % 0.0 in 0.0 W/m2 CLR
07:11 -6.1 °F -7.5 °F 1011.4 in Calm     90 % 0.0 in 0.0 W/m2 CLR
07:16 -6.1 °F -7.5 °F 1011.4 in Calm     90 % 0.0 in 0.0 W/m2 CLR
07:21 -6.1 °F -7.5 °F 1011.4 in Calm     90 % 0.0 in 0.0 W/m2 CLR
07:26 -6.1 °F -7.5 °F 1011.7 in Calm     90 % 0.0 in 0.0 W/m2 CLR
07:31 -5.6 °F -6.9 °F 1011.7 in Calm     90 % 0.0 in 0.0 W/m2 OVC
07:36 -5.0 °F -6.4 °F 1011.7 in Calm     90 % 0.0 in 0.0 W/m2 OVC
07:41 -5.0 °F -6.4 °F 1011.7 in Calm     90 % 0.0 in 0.0 W/m2 OVC
07:46 -5.0 °F -6.4 °F 1011.7 in Calm     90 % 0.0 in 5.0 W/m2 OVC
07:51 -5.6 °F -6.9 °F 1011.7 in Calm     90 % 0.0 in 11.0 W/m2 BKN
07:56 -5.6 °F -6.9 °F 1012.1 in Calm     90 % 0.0 in 14.0 W/m2 BKN
08:01 -5.0 °F -6.4 °F 1012.1 in Calm     90 % 0.0 in 19.0 W/m2 BKN
08:06 -5.0 °F -6.4 °F 1012.1 in Calm     90 % 0.0 in 23.0 W/m2 BKN
08:11 -5.0 °F -6.4 °F 1012.1 in Calm     90 % 0.0 in 28.0 W/m2 BKN
08:16 -5.0 °F -6.4 °F 1012.1 in Calm     90 % 0.0 in 33.0 W/m2 BKN
08:21 -5.0 °F -6.4 °F 1011.7 in Calm     90 % 0.0 in 44.0 W/m2 BKN
08:26 -5.0 °F -6.2 °F 1011.7 in Calm     91 % 0.0 in 53.0 W/m2 SCT
08:31 -4.4 °F -5.7 °F 1012.1 in Calm     91 % 0.0 in 69.0 W/m2 FEW
08:36 -4.4 °F -5.8 °F 1012.1 in Calm     90 % 0.0 in 83.0 W/m2 FEW
08:41 -4.4 °F -5.8 °F 1012.1 in Calm     90 % 0.0 in 98.0 W/m2 CLR
08:46 -4.4 °F -5.8 °F 1012.1 in Calm     90 % 0.0 in 116.0 W/m2 CLR
08:51 -3.9 °F -5.4 °F 1012.1 in Calm     89 % 0.0 in 132.0 W/m2 CLR
08:56 -3.9 °F -5.4 °F 1012.1 in Calm     89 % 0.0 in 148.0 W/m2 CLR
09:01 -3.3 °F -4.7 °F 1012.1 in Calm     90 % 0.0 in 146.0 W/m2 CLR
09:06 -3.3 °F -4.7 °F 1012.1 in Calm     90 % 0.0 in 179.0 W/m2 CLR
09:11 -2.8 °F -4.3 °F 1012.1 in Calm     89 % 0.0 in 186.0 W/m2 CLR
09:16 -2.8 °F -4.3 °F 1012.1 in Calm     89 % 0.0 in 199.0 W/m2 CLR
09:21 -2.8 °F -4.5 °F 1012.1 in Calm     88 % 0.0 in 218.0 W/m2 CLR
09:26 -2.2 °F -4.1 °F 1012.1 in Calm     87 % 0.0 in 232.0 W/m2 CLR
09:31 -2.2 °F -4.2 °F 1012.1 in Calm     86 % 0.0 in 246.0 W/m2 CLR
09:36 -1.7 °F -4.0 °F 1012.1 in Calm     84 % 0.0 in 251.0 W/m2 CLR
09:41 -1.7 °F -4.3 °F 1012.4 in Calm     82 % 0.0 in 272.0 W/m2 CLR
09:46 -1.1 °F -3.9 °F 1012.1 in Calm     81 % 0.0 in 288.0 W/m2 CLR
09:51 -0.6 °F -3.6 °F 1012.4 in Calm     80 % 0.0 in 304.0 W/m2 CLR
09:56 0.0 °F -3.1 °F 1012.4 in Calm     80 % 0.0 in 320.0 W/m2 CLR
10:01 0.0 °F -3.2 °F 1012.1 in Calm     79 % 0.0 in 332.0 W/m2 CLR
10:03 0.6 °F -2.7 °F 1012.4 in Calm     79 % 0.0 in 345.0 W/m2 CLR
10:08 1.1 °F -2.3 °F 1012.4 in Calm     78 % 0.0 in 362.0 W/m2 CLR
10:13 1.1 °F -2.5 °F 1012.4 in Calm     77 % 0.0 in 380.0 W/m2 CLR
10:18 1.7 °F -2.5 °F 1012.4 in Calm     74 % 0.0 in 394.0 W/m2 CLR
10:23 1.7 °F -2.8 °F 1012.4 in Calm     72 % 0.0 in 404.0 W/m2 CLR
10:28 2.2 °F -2.3 °F 1012.4 in Calm     72 % 0.0 in 418.0 W/m2 CLR
10:33 2.8 °F -1.8 °F 1012.4 in Calm     72 % 0.0 in 432.0 W/m2 CLR
10:38 3.3 °F -1.4 °F 1012.4 in Calm     71 % 0.0 in 445.0 W/m2 CLR
10:43 3.3 °F -1.8 °F 1012.4 in Calm     69 % 0.0 in 455.0 W/m2 CLR
10:48 3.9 °F -1.1 °F 1012.4 in Calm     70 % 0.0 in 468.0 W/m2 CLR
10:53 3.9 °F -1.3 °F 1012.4 in Calm     69 % 0.0 in 482.0 W/m2 CLR
10:58 4.4 °F -1.2 °F 1012.4 in Calm     67 % 0.0 in 492.0 W/m2 CLR
11:03 4.4 °F -0.9 °F 1012.4 in Calm     68 % 0.0 in 499.0 W/m2 CLR
11:08 5.0 °F -0.4 °F 1012.4 in Calm     68 % 0.0 in 512.0 W/m2 CLR
11:13 5.0 °F -1.1 °F 1012.4 in Calm     65 % 0.0 in 522.0 W/m2 CLR
11:19 5.0 °F -1.3 °F 1012.4 in Calm     64 % 0.0 in 533.0 W/m2 CLR
11:24 5.6 °F -0.7 °F 1012.1 in NNW 16.7 mph 16.7 mph 64 % 0.0 in 538.0 W/m2 CLR
11:29 5.6 °F -0.9 °F 1012.4 in Calm     63 % 0.0 in 543.0 W/m2 CLR
11:34 5.6 °F -0.7 °F 1012.4 in Calm     64 % 0.0 in 561.0 W/m2 CLR
11:39 6.1 °F -0.4 °F 1012.4 in NNE 9.3 mph   63 % 0.0 in 570.0 W/m2 CLR
11:44 6.7 °F 0.1 °F 1012.1 in Calm     63 % 0.0 in 575.0 W/m2 CLR
11:49 6.7 °F 0.3 °F 1012.1 in NNW 9.7 mph 9.7 mph 64 % 0.0 in 587.0 W/m2 CLR
11:54 7.2 °F 0.4 °F 1012.1 in Calm     62 % 0.0 in 594.0 W/m2 CLR
11:59 7.2 °F 0.4 °F 1012.1 in Calm     62 % 0.0 in 601.0 W/m2 CLR
12:04 6.7 °F -0.1 °F 1012.1 in Calm     62 % 0.0 in 608.0 W/m2 CLR
12:09 6.7 °F 0.1 °F 1012.1 in NNW 9.7 mph 9.7 mph 63 % 0.0 in 613.0 W/m2 CLR
12:14 7.2 °F -0.1 °F 1012.1 in Calm     60 % 0.0 in 621.0 W/m2 CLR
12:19 7.8 °F 0.7 °F 1012.1 in NE 1.9 mph 1.9 mph 61 % 0.0 in 624.0 W/m2 CLR
12:24 7.8 °F 0.9 °F 1012.1 in NE 5.6 mph 5.6 mph 62 % 0.0 in 628.0 W/m2 CLR
12:29 7.8 °F 0.5 °F 1012.1 in Calm     60 % 0.0 in 624.0 W/m2 CLR
12:34 8.3 °F 1.0 °F 1011.7 in NNW 14.8 mph 14.8 mph 60 % 0.0 in 635.0 W/m2 CLR
12:39 8.9 °F 1.1 °F 1011.7 in NNE 11.1 mph 11.1 mph 58 % 0.0 in 640.0 W/m2 CLR
12:44 8.3 °F 1.0 °F 1012.1 in North 16.7 mph 16.7 mph 60 % 0.0 in 643.0 W/m2 CLR
12:49 8.3 °F 0.6 °F 1012.1 in Calm     58 % 0.0 in 645.0 W/m2 CLR
12:54 7.8 °F -0.2 °F 1011.7 in Calm     57 % 0.0 in 649.0 W/m2 CLR
12:59 8.3 °F 0.3 °F 1012.1 in Calm     57 % 0.0 in 650.0 W/m2 CLR
13:04 8.9 °F 0.8 °F 1011.7 in North 13.0 mph 13.0 mph 57 % 0.0 in 656.0 W/m2 CLR
13:09 8.9 °F 1.1 °F 1011.7 in NW 7.4 mph   58 % 0.0 in 656.0 W/m2 CLR
13:14 9.4 °F 1.1 °F 1011.7 in Calm     56 % 0.0 in 652.0 W/m2 CLR
13:19 9.4 °F 1.3 °F 1011.7 in Calm     57 % 0.0 in 652.0 W/m2 CLR
13:24 9.4 °F 0.8 °F 1011.7 in Calm     55 % 0.0 in 647.0 W/m2 CLR
13:29 9.4 °F 0.8 °F 1011.4 in ENE 6.4 mph 6.4 mph 55 % 0.0 in 647.0 W/m2 CLR
13:34 9.4 °F 0.8 °F 1011.7 in East 8.0 mph 8.0 mph 55 % 0.0 in 640.0 W/m2 CLR
13:39 10.0 °F 1.1 °F 1011.4 in North 11.1 mph 11.1 mph 54 % 0.0 in 643.0 W/m2 CLR
13:44 9.4 °F 0.6 °F 1011.4 in NNE 14.8 mph 14.8 mph 54 % 0.0 in 643.0 W/m2 CLR
13:49 9.4 °F 0.8 °F 1011.4 in ENE 6.4 mph 6.4 mph 55 % 0.0 in 629.0 W/m2 CLR
13:54 9.4 °F 0.6 °F 1011.4 in NE 12.9 mph 12.9 mph 54 % 0.0 in 640.0 W/m2 CLR
13:59 9.4 °F 0.8 °F 1011.4 in NNW 11.1 mph 11.1 mph 55 % 0.0 in 633.0 W/m2 CLR
14:05 9.4 °F 0.8 °F 1011.4 in Calm     55 % 0.0 in 631.0 W/m2 CLR
14:10 10.0 °F 0.8 °F 1011.4 in East 13.0 mph 13.0 mph 53 % 0.0 in 629.0 W/m2 CLR
14:15 9.4 °F 0.3 °F 1011.4 in Calm     53 % 0.0 in 626.0 W/m2 CLR
14:20 10.0 °F 0.6 °F 1011.1 in ENE 14.8 mph 14.8 mph 52 % 0.0 in 619.0 W/m2 CLR
14:25 10.0 °F 0.8 °F 1011.1 in NNE 13.0 mph 13.0 mph 53 % 0.0 in 613.0 W/m2 CLR
14:30 10.0 °F 0.8 °F 1011.1 in NE 18.5 mph 18.5 mph 53 % 0.0 in 606.0 W/m2 CLR
14:35 10.0 °F 0.8 °F 1011.1 in ENE 18.5 mph 18.5 mph 53 % 0.0 in 599.0 W/m2 CLR
14:40 10.6 °F 1.4 °F 1011.1 in ENE 9.3 mph 9.3 mph 53 % 0.0 in 594.0 W/m2 CLR
14:45 10.6 °F 1.6 °F 1011.1 in NE 16.7 mph 16.7 mph 54 % 0.0 in 582.0 W/m2 CLR
14:50 9.4 °F 0.3 °F 1011.1 in NE 11.3 mph 11.3 mph 53 % 0.0 in 571.0 W/m2 CLR
14:55 10.6 °F 1.4 °F 1010.7 in East 16.7 mph 16.7 mph 53 % 0.0 in 573.0 W/m2 CLR
15:00 10.0 °F 0.6 °F 1011.1 in ESE 13.0 mph 13.0 mph 52 % 0.0 in 564.0 W/m2 CLR
15:05 10.0 °F 0.8 °F 1010.7 in East 1.9 mph   53 % 0.0 in 554.0 W/m2 CLR
15:10 9.4 °F 0.3 °F 1011.1 in East 13.0 mph 13.0 mph 53 % 0.0 in 541.0 W/m2 CLR
15:15 10.0 °F 0.6 °F 1010.7 in ENE 5.6 mph 6.1 mph 52 % 0.0 in 533.0 W/m2 CLR
15:20 9.4 °F -0.2 °F 1010.7 in ENE 1.9 mph   51 % 0.0 in 520.0 W/m2 CLR
15:25 9.4 °F -0.4 °F 1010.7 in East 1.9 mph   50 % 0.0 in 513.0 W/m2 CLR
15:30 10.0 °F 0.1 °F 1010.7 in SSE 1.9 mph 1.9 mph 50 % 0.0 in 503.0 W/m2 CLR
15:35 10.0 °F 0.1 °F 1010.7 in South 1.9 mph 1.9 mph 50 % 0.0 in 482.0 W/m2 CLR
15:40 10.0 °F 0.3 °F 1010.7 in Calm     51 % 0.0 in 473.0 W/m2 CLR
15:45 10.0 °F 0.1 °F 1010.7 in SE 1.9 mph 1.9 mph 50 % 0.0 in 457.0 W/m2 CLR
15:50 10.6 °F 0.3 °F 1010.7 in Calm     49 % 0.0 in 446.0 W/m2 CLR
15:55 10.6 °F 0.3 °F 1010.7 in Calm     49 % 0.0 in 445.0 W/m2 CLR
16:00 10.6 °F 0.3 °F 1010.7 in Calm     49 % 0.0 in 422.0 W/m2 CLR
16:05 10.6 °F 0.3 °F 1010.7 in Calm     49 % 0.0 in 404.0 W/m2 CLR
16:10 11.1 °F 0.5 °F 1010.7 in Calm     48 % 0.0 in 394.0 W/m2 CLR
16:17 10.6 °F -0.6 °F 1010.7 in Calm     46 % 0.0 in 383.0 W/m2 CLR
16:22 10.6 °F -0.6 °F 1010.7 in Calm     46 % 0.0 in 373.0 W/m2 CLR
16:27 10.6 °F -0.9 °F 1010.7 in Calm     45 % 0.0 in 359.0 W/m2 CLR
16:32 10.0 °F -1.1 °F 1010.7 in Calm     46 % 0.0 in 345.0 W/m2 CLR
16:37 10.6 °F -0.6 °F 1010.7 in ENE 1.6 mph   46 % 0.0 in 332.0 W/m2 CLR
16:42 10.6 °F -0.6 °F 1010.7 in Calm     46 % 0.0 in 318.0 W/m2 CLR
16:47 10.0 °F -1.1 °F 1010.7 in ENE 1.9 mph 1.9 mph 46 % 0.0 in 299.0 W/m2 CLR
16:52 10.0 °F -0.8 °F 1010.7 in ENE 3.7 mph 3.7 mph 47 % 0.0 in 283.0 W/m2 CLR
16:57 10.0 °F -1.1 °F 1010.7 in Calm     46 % 0.0 in 265.0 W/m2 CLR
17:02 10.0 °F -1.7 °F 1010.7 in NNE 1.9 mph 1.9 mph 44 % 0.0 in 255.0 W/m2 CLR
17:07 10.0 °F -1.7 °F 1010.7 in ENE 1.9 mph 1.9 mph 44 % 0.0 in 232.0 W/m2 CLR
17:12 10.0 °F -1.7 °F 1010.7 in ENE 3.2 mph   44 % 0.0 in 214.0 W/m2 CLR
17:17 10.0 °F -1.1 °F 1010.7 in East 1.9 mph   46 % 0.0 in 195.0 W/m2 CLR
17:22 9.4 °F -1.3 °F 1010.7 in Calm     47 % 0.0 in 179.0 W/m2 CLR
17:27 9.4 °F -1.3 °F 1011.1 in ENE 1.9 mph 1.9 mph 47 % 0.0 in 160.0 W/m2 CLR
17:32 9.4 °F -1.1 °F 1010.7 in Calm     48 % 0.0 in 146.0 W/m2 CLR
17:37 9.4 °F -1.6 °F 1011.1 in Calm     46 % 0.0 in 128.0 W/m2 CLR
17:42 9.4 °F -1.3 °F 1011.1 in NNE 3.7 mph 3.7 mph 47 % 0.0 in 116.0 W/m2 CLR
17:47 8.9 °F -1.8 °F 1011.1 in NNE 1.9 mph   47 % 0.0 in 102.0 W/m2 CLR
17:52 8.9 °F -1.6 °F 1011.1 in NNE 5.6 mph 5.6 mph 48 % 0.0 in 83.0 W/m2 CLR
17:57 8.9 °F -1.6 °F 1011.1 in NNE 1.9 mph   48 % 0.0 in 70.0 W/m2 FEW
18:02 8.3 °F -2.1 °F 1011.1 in NNE 3.7 mph 3.7 mph 48 % 0.0 in 58.0 W/m2 SCT
18:07 8.3 °F -1.8 °F 1011.1 in North 1.9 mph   49 % 0.0 in 49.0 W/m2 SCT
18:12 8.3 °F -1.8 °F 1011.4 in North 1.9 mph 1.9 mph 49 % 0.0 in 37.0 W/m2 BKN
18:17 8.3 °F -1.8 °F 1011.1 in North 3.7 mph 3.7 mph 49 % 0.0 in 28.0 W/m2 BKN
18:22 7.8 °F -2.0 °F 1011.4 in NNW 1.9 mph 1.9 mph 50 % 0.0 in 21.0 W/m2 BKN
18:27 7.8 °F -1.5 °F 1011.4 in Calm     52 % 0.0 in 18.0 W/m2 BKN
18:32 7.2 °F -1.7 °F 1011.4 in Calm     53 % 0.0 in 14.0 W/m2 BKN
18:37 6.7 °F -2.2 °F 1011.4 in Calm     53 % 0.0 in 9.0 W/m2 BKN
18:42 6.1 °F -2.5 °F 1011.4 in Calm     54 % 0.0 in 5.0 W/m2 OVC
18:47 5.6 °F -2.8 °F 1011.7 in Calm     55 % 0.0 in 0.0 W/m2 OVC
18:52 5.0 °F -3.1 °F 1011.7 in Calm     56 % 0.0 in 0.0 W/m2 OVC
18:57 5.0 °F -3.1 °F 1011.7 in Calm     56 % 0.0 in 0.0 W/m2 CLR
19:02 4.4 °F -3.3 °F 1011.7 in Calm     57 % 0.0 in 0.0 W/m2 CLR
19:07 3.9 °F -3.9 °F 1011.7 in Calm     57 % 0.0 in 0.0 W/m2 CLR
19:12 3.9 °F -3.6 °F 1012.1 in Calm     58 % 0.0 in 0.0 W/m2 CLR
19:17 3.9 °F -3.4 °F 1012.1 in Calm     59 % 0.0 in 0.0 W/m2 CLR
19:22 4.4 °F -2.7 °F 1012.1 in Calm     60 % 0.0 in 0.0 W/m2 CLR
19:27 3.9 °F -3.2 °F 1012.1 in Calm     60 % 0.0 in 0.0 W/m2 CLR
19:32 3.3 °F -3.5 °F 1012.1 in Calm     61 % 0.0 in 0.0 W/m2 CLR
19:37 3.3 °F -3.5 °F 1012.4 in Calm     61 % 0.0 in 0.0 W/m2 CLR
19:42 3.3 °F -3.1 °F 1012.1 in Calm     63 % 0.0 in 0.0 W/m2 CLR
19:47 3.3 °F -2.8 °F 1012.4 in Calm     64 % 0.0 in 0.0 W/m2 CLR
19:52 2.8 °F -3.2 °F 1012.4 in Calm     65 % 0.0 in 0.0 W/m2 CLR
19:57 2.8 °F -2.9 °F 1012.4 in Calm     66 % 0.0 in 0.0 W/m2 CLR
20:02 2.2 °F -3.5 °F 1012.4 in Calm     66 % 0.0 in 0.0 W/m2 CLR
20:07 2.2 °F -3.3 °F 1012.4 in Calm     67 % 0.0 in 0.0 W/m2 CLR
20:12 2.2 °F -3.3 °F 1012.8 in Calm     67 % 0.0 in 0.0 W/m2 CLR
20:17 1.7 °F -3.4 °F 1012.8 in Calm     69 % 0.0 in 0.0 W/m2 CLR
20:22 1.7 °F -3.4 °F 1012.8 in Calm     69 % 0.0 in 0.0 W/m2 CLR
20:27 1.1 °F -3.8 °F 1012.4 in Calm     70 % 0.0 in 0.0 W/m2 CLR
20:32 1.1 °F -3.8 °F 1012.8 in Calm     70 % 0.0 in 0.0 W/m2 CLR
20:37 1.1 °F -3.8 °F 1012.8 in Calm     70 % 0.0 in 0.0 W/m2 CLR
20:42 0.6 °F -4.1 °F 1012.8 in Calm     71 % 0.0 in 0.0 W/m2 CLR
20:47 0.0 °F -4.4 °F 1012.8 in Calm     72 % 0.0 in 0.0 W/m2 CLR
20:52 0.0 °F -4.3 °F 1012.8 in Calm     73 % 0.0 in 0.0 W/m2 CLR
20:58 0.0 °F -4.3 °F 1012.8 in Calm     73 % 0.0 in 0.0 W/m2 CLR
21:03 -0.6 °F -4.6 °F 1013.1 in Calm     74 % 0.0 in 0.0 W/m2 CLR
21:08 -0.6 °F -4.6 °F 1013.1 in Calm     74 % 0.0 in 0.0 W/m2 CLR
21:13 -0.6 °F -4.6 °F 1013.1 in Calm     74 % 0.0 in 0.0 W/m2 CLR
21:18 -0.6 °F -4.4 °F 1013.1 in Calm     75 % 0.0 in 0.0 W/m2 CLR
21:23 -0.6 °F -4.4 °F 1013.1 in Calm     75 % 0.0 in 0.0 W/m2 CLR
21:28 -0.6 °F -4.3 °F 1013.1 in Calm     76 % 0.0 in 0.0 W/m2 CLR
21:33 -0.6 °F -4.3 °F 1013.1 in Calm     76 % 0.0 in 0.0 W/m2 CLR
21:38 -1.1 °F -4.6 °F 1013.1 in Calm     77 % 0.0 in 0.0 W/m2 CLR
21:43 -1.1 °F -4.6 °F 1013.1 in Calm     77 % 0.0 in 0.0 W/m2 CLR
21:48 -1.1 °F -4.6 °F 1013.1 in Calm     77 % 0.0 in 0.0 W/m2 CLR
21:53 -1.7 °F -5.0 °F 1013.1 in Calm     78 % 0.0 in 0.0 W/m2 CLR
21:58 -1.7 °F -5.0 °F 1013.4 in Calm     78 % 0.0 in 0.0 W/m2 CLR
22:03 -1.7 °F -5.0 °F 1013.4 in Calm     78 % 0.0 in 0.0 W/m2 CLR
22:05 -1.7 °F -5.0 °F 1013.1 in Calm     78 % 0.0 in 0.0 W/m2 CLR
22:10 -1.7 °F -5.0 °F 1013.4 in Calm     78 % 0.0 in 0.0 W/m2 CLR
22:15 -1.7 °F -4.8 °F 1013.4 in Calm     79 % 0.0 in 0.0 W/m2 CLR
22:20 -1.7 °F -4.8 °F 1013.4 in Calm     79 % 0.0 in 0.0 W/m2 CLR
22:25 -1.7 °F -4.8 °F 1013.4 in Calm     79 % 0.0 in 0.0 W/m2 CLR
22:30 -1.7 °F -4.8 °F 1013.4 in Calm     79 % 0.0 in 0.0 W/m2 CLR
22:32 -1.7 °F -4.8 °F 1013.4 in Calm     79 % 0.0 in 0.0 W/m2 CLR
22:37 -1.7 °F -4.8 °F 1013.4 in Calm     79 % 0.0 in 0.0 W/m2 CLR
22:42 -1.7 °F -4.7 °F 1013.8 in Calm     80 % 0.0 in 0.0 W/m2 CLR
22:46 -1.7 °F -4.7 °F 1013.8 in Calm     80 % 0.0 in 0.0 W/m2 CLR
22:51 -1.7 °F -4.8 °F 1013.8 in Calm     79 % 0.0 in 0.0 W/m2 CLR
22:56 -2.2 °F -5.4 °F 1013.8 in Calm     79 % 0.0 in 0.0 W/m2 CLR
23:01 -2.2 °F -5.2 °F 1013.8 in Calm     80 % 0.0 in 0.0 W/m2 CLR
23:03 -2.2 °F -5.2 °F 1013.8 in Calm     80 % 0.0 in 0.0 W/m2 CLR
23:08 -2.2 °F -5.1 °F 1013.8 in Calm     81 % 0.0 in 0.0 W/m2 CLR
23:13 -2.2 °F -5.1 °F 1013.8 in Calm     81 % 0.0 in 0.0 W/m2 CLR
23:18 -2.2 °F -4.9 °F 1013.8 in Calm     82 % 0.0 in 0.0 W/m2 CLR
23:23 -2.2 °F -4.7 °F 1014.1 in Calm     83 % 0.0 in 0.0 W/m2 CLR
23:24 -2.2 °F -4.7 °F 1013.8 in Calm     83 % 0.0 in 0.0 W/m2 CLR
23:29 -2.2 °F -4.7 °F 1013.8 in Calm     83 % 0.0 in 0.0 W/m2 CLR
23:34 -2.2 °F -4.7 °F 1013.8 in Calm     83 % 0.0 in 0.0 W/m2 CLR
23:39 -2.8 °F -5.3 °F 1013.8 in Calm     83 % 0.0 in 0.0 W/m2 CLR
23:41 -2.8 °F -5.3 °F 1013.8 in Calm     83 % 0.0 in 0.0 W/m2 CLR
23:46 -2.8 °F -5.3 °F 1013.8 in Calm     83 % 0.0 in 0.0 W/m2 CLR
23:51 -2.8 °F -5.3 °F 1013.8 in Calm     83 % 0.0 in 0.0 W/m2 CLR
23:56 -2.8 °F -5.3 °F 1013.8 in Calm     83 % 0.0 in 0.0 W/m2 CLR
Lo Temps de Massalio
Compliments of Weather Underground - 1.25 mb